sensor_id;sensor_type;location;lat;lon;timestamp;P1;durP1;ratioP1;P2;durP2;ratioP2
62052;SDS011;48300;52.902;6.534;2023-12-20T00:01:31;13.88;;;1.38;;
62052;SDS011;48300;52.902;6.534;2023-12-20T00:03:57;9.18;;;1.02;;
62052;SDS011;48300;52.902;6.534;2023-12-20T00:06:23;9.98;;;1.38;;
62052;SDS011;48300;52.902;6.534;2023-12-20T00:08:49;14.50;;;1.38;;
62052;SDS011;48300;52.902;6.534;2023-12-20T00:11:15;9.77;;;1.30;;
62052;SDS011;48300;52.902;6.534;2023-12-20T00:13:41;8.38;;;1.02;;
62052;SDS011;48300;52.902;6.534;2023-12-20T00:16:07;10.85;;;1.20;;
62052;SDS011;48300;52.902;6.534;2023-12-20T00:18:33;10.30;;;1.02;;
62052;SDS011;48300;52.902;6.534;2023-12-20T00:20:59;9.82;;;1.42;;
62052;SDS011;48300;52.902;6.534;2023-12-20T00:23:25;15.50;;;1.50;;
62052;SDS011;48300;52.902;6.534;2023-12-20T00:25:51;13.32;;;1.10;;
62052;SDS011;48300;52.902;6.534;2023-12-20T00:28:17;22.30;;;3.67;;
62052;SDS011;48300;52.902;6.534;2023-12-20T00:30:43;10.88;;;1.40;;
62052;SDS011;48300;52.902;6.534;2023-12-20T00:33:09;6.57;;;1.15;;
62052;SDS011;48300;52.902;6.534;2023-12-20T00:35:35;14.95;;;1.20;;
62052;SDS011;48300;52.902;6.534;2023-12-20T00:38:01;6.72;;;1.27;;
62052;SDS011;48300;52.902;6.534;2023-12-20T00:40:27;8.95;;;1.05;;
62052;SDS011;48300;52.902;6.534;2023-12-20T00:42:53;11.77;;;1.00;;
62052;SDS011;48300;52.902;6.534;2023-12-20T00:45:19;10.50;;;1.20;;
62052;SDS011;48300;52.902;6.534;2023-12-20T00:47:45;9.65;;;1.00;;
62052;SDS011;48300;52.902;6.534;2023-12-20T00:50:11;6.28;;;1.23;;
62052;SDS011;48300;52.902;6.534;2023-12-20T00:52:37;13.48;;;1.67;;
62052;SDS011;48300;52.902;6.534;2023-12-20T00:55:03;13.18;;;1.48;;
62052;SDS011;48300;52.902;6.534;2023-12-20T00:57:29;7.85;;;0.95;;
62052;SDS011;48300;52.902;6.534;2023-12-20T00:59:56;18.10;;;1.73;;
62052;SDS011;48300;52.902;6.534;2023-12-20T01:02:22;17.67;;;1.75;;
62052;SDS011;48300;52.902;6.534;2023-12-20T01:04:48;19.15;;;2.80;;
62052;SDS011;48300;52.902;6.534;2023-12-20T01:07:14;17.77;;;1.60;;
62052;SDS011;48300;52.902;6.534;2023-12-20T01:09:40;15.00;;;2.03;;
62052;SDS011;48300;52.902;6.534;2023-12-20T01:12:06;13.60;;;2.28;;
62052;SDS011;48300;52.902;6.534;2023-12-20T01:14:32;16.50;;;1.40;;
62052;SDS011;48300;52.902;6.534;2023-12-20T01:16:59;8.20;;;1.35;;
62052;SDS011;48300;52.902;6.534;2023-12-20T01:19:25;15.38;;;1.20;;
62052;SDS011;48300;52.902;6.534;2023-12-20T01:21:52;13.88;;;1.33;;
62052;SDS011;48300;52.902;6.534;2023-12-20T01:24:18;10.30;;;1.75;;
62052;SDS011;48300;52.902;6.534;2023-12-20T01:26:44;8.18;;;1.17;;
62052;SDS011;48300;52.902;6.534;2023-12-20T01:29:10;11.40;;;1.45;;
62052;SDS011;48300;52.902;6.534;2023-12-20T01:31:38;8.23;;;1.08;;
62052;SDS011;48300;52.902;6.534;2023-12-20T01:34:04;6.53;;;1.20;;
62052;SDS011;48300;52.902;6.534;2023-12-20T01:36:30;11.60;;;1.23;;
62052;SDS011;48300;52.902;6.534;2023-12-20T01:38:56;10.90;;;1.40;;
62052;SDS011;48300;52.902;6.534;2023-12-20T01:41:21;15.38;;;1.50;;
62052;SDS011;48300;52.902;6.534;2023-12-20T01:43:48;10.77;;;1.52;;
62052;SDS011;48300;52.902;6.534;2023-12-20T01:46:14;13.50;;;1.27;;
62052;SDS011;48300;52.902;6.534;2023-12-20T01:48:40;17.35;;;1.73;;
62052;SDS011;48300;52.902;6.534;2023-12-20T01:51:06;10.90;;;1.30;;
62052;SDS011;48300;52.902;6.534;2023-12-20T01:53:32;18.23;;;1.88;;
62052;SDS011;48300;52.902;6.534;2023-12-20T01:55:58;10.60;;;1.65;;
62052;SDS011;48300;52.902;6.534;2023-12-20T01:58:25;10.70;;;1.25;;
62052;SDS011;48300;52.902;6.534;2023-12-20T02:00:51;15.13;;;1.70;;
62052;SDS011;48300;52.902;6.534;2023-12-20T02:03:17;16.90;;;1.83;;
62052;SDS011;48300;52.902;6.534;2023-12-20T02:05:44;13.52;;;1.40;;
62052;SDS011;48300;52.902;6.534;2023-12-20T02:08:10;14.60;;;1.83;;
62052;SDS011;48300;52.902;6.534;2023-12-20T02:10:36;17.48;;;1.85;;
62052;SDS011;48300;52.902;6.534;2023-12-20T02:13:03;10.85;;;1.30;;
62052;SDS011;48300;52.902;6.534;2023-12-20T02:15:29;14.00;;;2.78;;
62052;SDS011;48300;52.902;6.534;2023-12-20T02:17:55;10.10;;;1.48;;
62052;SDS011;48300;52.902;6.534;2023-12-20T02:20:21;18.20;;;2.17;;
62052;SDS011;48300;52.902;6.534;2023-12-20T02:22:47;16.23;;;1.83;;
62052;SDS011;48300;52.902;6.534;2023-12-20T02:25:13;14.82;;;1.77;;
62052;SDS011;48300;52.902;6.534;2023-12-20T02:27:39;15.70;;;2.00;;
62052;SDS011;48300;52.902;6.534;2023-12-20T02:30:06;13.50;;;1.80;;
62052;SDS011;48300;52.902;6.534;2023-12-20T02:32:32;17.13;;;1.83;;
62052;SDS011;48300;52.902;6.534;2023-12-20T02:34:58;13.13;;;1.88;;
62052;SDS011;48300;52.902;6.534;2023-12-20T02:37:24;18.15;;;2.38;;
62052;SDS011;48300;52.902;6.534;2023-12-20T02:39:50;12.93;;;1.80;;
62052;SDS011;48300;52.902;6.534;2023-12-20T02:42:16;15.82;;;1.63;;
62052;SDS011;48300;52.902;6.534;2023-12-20T02:44:42;13.45;;;1.83;;
62052;SDS011;48300;52.902;6.534;2023-12-20T02:47:08;19.45;;;2.28;;
62052;SDS011;48300;52.902;6.534;2023-12-20T02:49:34;12.93;;;2.65;;
62052;SDS011;48300;52.902;6.534;2023-12-20T02:52:00;19.85;;;2.10;;
62052;SDS011;48300;52.902;6.534;2023-12-20T02:54:26;16.30;;;1.80;;
62052;SDS011;48300;52.902;6.534;2023-12-20T02:56:52;19.55;;;1.98;;
62052;SDS011;48300;52.902;6.534;2023-12-20T02:59:18;18.17;;;2.10;;
62052;SDS011;48300;52.902;6.534;2023-12-20T03:01:44;18.98;;;2.22;;
62052;SDS011;48300;52.902;6.534;2023-12-20T03:04:11;13.85;;;1.85;;
62052;SDS011;48300;52.902;6.534;2023-12-20T03:06:37;17.08;;;1.90;;
62052;SDS011;48300;52.902;6.534;2023-12-20T03:09:03;15.32;;;2.40;;
62052;SDS011;48300;52.902;6.534;2023-12-20T03:11:29;21.40;;;1.88;;
62052;SDS011;48300;52.902;6.534;2023-12-20T03:13:55;17.33;;;2.15;;
62052;SDS011;48300;52.902;6.534;2023-12-20T03:16:21;16.50;;;2.33;;
62052;SDS011;48300;52.902;6.534;2023-12-20T03:18:47;14.27;;;2.25;;
62052;SDS011;48300;52.902;6.534;2023-12-20T03:21:13;13.43;;;2.88;;
62052;SDS011;48300;52.902;6.534;2023-12-20T03:23:40;11.38;;;1.88;;
62052;SDS011;48300;52.902;6.534;2023-12-20T03:26:09;20.10;;;2.70;;
62052;SDS011;48300;52.902;6.534;2023-12-20T03:28:35;19.38;;;3.22;;
62052;SDS011;48300;52.902;6.534;2023-12-20T03:31:02;21.80;;;1.95;;
62052;SDS011;48300;52.902;6.534;2023-12-20T03:33:28;22.02;;;2.85;;
62052;SDS011;48300;52.902;6.534;2023-12-20T03:35:54;24.88;;;5.22;;
62052;SDS011;48300;52.902;6.534;2023-12-20T03:38:21;22.38;;;2.80;;
62052;SDS011;48300;52.902;6.534;2023-12-20T03:40:49;35.80;;;3.97;;
62052;SDS011;48300;52.902;6.534;2023-12-20T03:43:15;30.27;;;4.45;;
62052;SDS011;48300;52.902;6.534;2023-12-20T03:45:41;24.52;;;2.65;;
62052;SDS011;48300;52.902;6.534;2023-12-20T03:48:08;27.08;;;2.40;;
62052;SDS011;48300;52.902;6.534;2023-12-20T03:50:34;23.83;;;2.90;;
62052;SDS011;48300;52.902;6.534;2023-12-20T03:53:00;17.95;;;3.13;;
62052;SDS011;48300;52.902;6.534;2023-12-20T03:55:26;26.88;;;2.75;;
62052;SDS011;48300;52.902;6.534;2023-12-20T03:57:53;18.48;;;2.60;;
62052;SDS011;48300;52.902;6.534;2023-12-20T04:00:19;19.23;;;2.42;;
62052;SDS011;48300;52.902;6.534;2023-12-20T04:02:45;22.42;;;2.50;;
62052;SDS011;48300;52.902;6.534;2023-12-20T04:05:11;23.23;;;3.10;;
62052;SDS011;48300;52.902;6.534;2023-12-20T04:07:37;20.52;;;3.00;;
62052;SDS011;48300;52.902;6.534;2023-12-20T04:10:03;22.83;;;2.90;;
62052;SDS011;48300;52.902;6.534;2023-12-20T04:12:29;30.75;;;3.03;;
62052;SDS011;48300;52.902;6.534;2023-12-20T04:14:55;26.10;;;3.10;;
62052;SDS011;48300;52.902;6.534;2023-12-20T04:17:21;23.70;;;3.35;;
62052;SDS011;48300;52.902;6.534;2023-12-20T04:19:48;19.75;;;2.78;;
62052;SDS011;48300;52.902;6.534;2023-12-20T04:22:14;23.83;;;3.15;;
62052;SDS011;48300;52.902;6.534;2023-12-20T04:24:40;18.98;;;2.55;;
62052;SDS011;48300;52.902;6.534;2023-12-20T04:27:07;23.13;;;2.30;;
62052;SDS011;48300;52.902;6.534;2023-12-20T04:29:33;24.63;;;3.17;;
62052;SDS011;48300;52.902;6.534;2023-12-20T04:31:59;27.48;;;3.83;;
62052;SDS011;48300;52.902;6.534;2023-12-20T04:34:25;22.20;;;2.63;;
62052;SDS011;48300;52.902;6.534;2023-12-20T04:36:52;26.88;;;3.47;;
62052;SDS011;48300;52.902;6.534;2023-12-20T04:39:18;21.63;;;3.20;;
62052;SDS011;48300;52.902;6.534;2023-12-20T04:41:44;25.92;;;2.50;;
62052;SDS011;48300;52.902;6.534;2023-12-20T04:44:10;27.83;;;4.30;;
62052;SDS011;48300;52.902;6.534;2023-12-20T04:46:36;20.40;;;2.47;;
62052;SDS011;48300;52.902;6.534;2023-12-20T04:49:02;22.92;;;2.75;;
62052;SDS011;48300;52.902;6.534;2023-12-20T04:51:28;26.23;;;3.53;;
62052;SDS011;48300;52.902;6.534;2023-12-20T04:53:54;24.95;;;3.08;;
62052;SDS011;48300;52.902;6.534;2023-12-20T04:56:20;21.80;;;2.40;;
62052;SDS011;48300;52.902;6.534;2023-12-20T04:58:46;22.50;;;2.40;;
62052;SDS011;48300;52.902;6.534;2023-12-20T05:01:12;18.58;;;3.40;;
62052;SDS011;48300;52.902;6.534;2023-12-20T05:03:38;20.73;;;3.15;;
62052;SDS011;48300;52.902;6.534;2023-12-20T05:06:04;20.88;;;2.65;;
62052;SDS011;48300;52.902;6.534;2023-12-20T05:08:30;24.73;;;4.30;;
62052;SDS011;48300;52.902;6.534;2023-12-20T05:10:56;21.73;;;3.53;;
62052;SDS011;48300;52.902;6.534;2023-12-20T05:13:22;19.98;;;3.08;;
62052;SDS011;48300;52.902;6.534;2023-12-20T05:15:48;24.63;;;3.92;;
62052;SDS011;48300;52.902;6.534;2023-12-20T05:18:14;19.95;;;3.80;;
62052;SDS011;48300;52.902;6.534;2023-12-20T05:20:40;21.10;;;2.60;;
62052;SDS011;48300;52.902;6.534;2023-12-20T05:23:06;24.25;;;2.97;;
62052;SDS011;48300;52.902;6.534;2023-12-20T05:25:33;22.70;;;3.10;;
62052;SDS011;48300;52.902;6.534;2023-12-20T05:27:59;24.83;;;3.30;;
62052;SDS011;48300;52.902;6.534;2023-12-20T05:30:25;26.50;;;3.53;;
62052;SDS011;48300;52.902;6.534;2023-12-20T05:32:51;19.75;;;3.15;;
62052;SDS011;48300;52.902;6.534;2023-12-20T05:35:17;18.90;;;3.30;;
62052;SDS011;48300;52.902;6.534;2023-12-20T05:37:44;31.55;;;3.42;;
62052;SDS011;48300;52.902;6.534;2023-12-20T05:40:10;26.60;;;3.80;;
62052;SDS011;48300;52.902;6.534;2023-12-20T05:42:37;22.13;;;2.90;;
62052;SDS011;48300;52.902;6.534;2023-12-20T05:45:03;23.98;;;3.28;;
62052;SDS011;48300;52.902;6.534;2023-12-20T05:47:29;15.75;;;3.30;;
62052;SDS011;48300;52.902;6.534;2023-12-20T05:49:55;20.77;;;2.55;;
62052;SDS011;48300;52.902;6.534;2023-12-20T05:52:21;22.83;;;2.95;;
62052;SDS011;48300;52.902;6.534;2023-12-20T05:54:47;21.77;;;3.15;;
62052;SDS011;48300;52.902;6.534;2023-12-20T05:57:14;15.48;;;2.28;;
62052;SDS011;48300;52.902;6.534;2023-12-20T05:59:40;17.08;;;3.00;;
62052;SDS011;48300;52.902;6.534;2023-12-20T06:02:06;25.20;;;3.15;;
62052;SDS011;48300;52.902;6.534;2023-12-20T06:04:32;22.17;;;3.45;;
62052;SDS011;48300;52.902;6.534;2023-12-20T06:06:58;26.20;;;3.78;;
62052;SDS011;48300;52.902;6.534;2023-12-20T06:09:24;21.88;;;2.85;;
62052;SDS011;48300;52.902;6.534;2023-12-20T06:11:50;24.90;;;3.08;;
62052;SDS011;48300;52.902;6.534;2023-12-20T06:14:16;48.72;;;5.20;;
62052;SDS011;48300;52.902;6.534;2023-12-20T06:16:42;21.23;;;2.80;;
62052;SDS011;48300;52.902;6.534;2023-12-20T06:19:08;21.02;;;2.00;;
62052;SDS011;48300;52.902;6.534;2023-12-20T06:21:34;20.25;;;3.33;;
62052;SDS011;48300;52.902;6.534;2023-12-20T06:24:00;23.50;;;3.35;;
62052;SDS011;48300;52.902;6.534;2023-12-20T06:26:26;32.50;;;3.95;;
62052;SDS011;48300;52.902;6.534;2023-12-20T06:28:52;20.73;;;2.63;;
62052;SDS011;48300;52.902;6.534;2023-12-20T06:31:18;19.13;;;2.70;;
62052;SDS011;48300;52.902;6.534;2023-12-20T06:33:44;23.08;;;3.00;;
62052;SDS011;48300;52.902;6.534;2023-12-20T06:36:11;32.40;;;4.30;;
62052;SDS011;48300;52.902;6.534;2023-12-20T06:38:38;30.30;;;4.22;;
62052;SDS011;48300;52.902;6.534;2023-12-20T06:41:04;23.52;;;3.42;;
62052;SDS011;48300;52.902;6.534;2023-12-20T06:43:30;17.30;;;2.40;;
62052;SDS011;48300;52.902;6.534;2023-12-20T06:45:57;25.92;;;4.15;;
62052;SDS011;48300;52.902;6.534;2023-12-20T06:48:23;18.08;;;3.00;;
62052;SDS011;48300;52.902;6.534;2023-12-20T06:50:49;27.80;;;3.33;;
62052;SDS011;48300;52.902;6.534;2023-12-20T06:53:15;18.92;;;2.70;;
62052;SDS011;48300;52.902;6.534;2023-12-20T06:55:41;23.00;;;2.95;;
62052;SDS011;48300;52.902;6.534;2023-12-20T06:58:07;18.98;;;2.90;;
62052;SDS011;48300;52.902;6.534;2023-12-20T07:00:34;21.30;;;3.00;;
62052;SDS011;48300;52.902;6.534;2023-12-20T07:03:00;23.30;;;3.10;;
62052;SDS011;48300;52.902;6.534;2023-12-20T07:05:26;20.75;;;3.83;;
62052;SDS011;48300;52.902;6.534;2023-12-20T07:07:52;23.30;;;3.78;;
62052;SDS011;48300;52.902;6.534;2023-12-20T07:10:18;25.20;;;3.20;;
62052;SDS011;48300;52.902;6.534;2023-12-20T07:12:45;22.70;;;3.58;;
62052;SDS011;48300;52.902;6.534;2023-12-20T07:15:11;25.60;;;3.00;;
62052;SDS011;48300;52.902;6.534;2023-12-20T07:17:37;29.73;;;3.45;;
62052;SDS011;48300;52.902;6.534;2023-12-20T07:20:03;17.83;;;2.75;;
62052;SDS011;48300;52.902;6.534;2023-12-20T07:22:31;27.88;;;4.05;;
62052;SDS011;48300;52.902;6.534;2023-12-20T07:24:58;20.10;;;3.30;;
62052;SDS011;48300;52.902;6.534;2023-12-20T07:27:24;19.58;;;3.35;;
62052;SDS011;48300;52.902;6.534;2023-12-20T07:29:50;18.08;;;2.92;;
62052;SDS011;48300;52.902;6.534;2023-12-20T07:32:16;23.92;;;4.43;;
62052;SDS011;48300;52.902;6.534;2023-12-20T07:34:42;22.50;;;3.85;;
62052;SDS011;48300;52.902;6.534;2023-12-20T07:37:08;23.23;;;2.75;;
62052;SDS011;48300;52.902;6.534;2023-12-20T07:39:36;33.22;;;4.50;;
62052;SDS011;48300;52.902;6.534;2023-12-20T07:42:02;31.90;;;3.33;;
62052;SDS011;48300;52.902;6.534;2023-12-20T07:44:28;30.30;;;3.53;;
62052;SDS011;48300;52.902;6.534;2023-12-20T07:46:54;26.33;;;3.28;;
62052;SDS011;48300;52.902;6.534;2023-12-20T07:49:20;24.42;;;3.45;;
62052;SDS011;48300;52.902;6.534;2023-12-20T07:51:46;19.58;;;2.95;;
62052;SDS011;48300;52.902;6.534;2023-12-20T07:54:12;23.15;;;2.92;;
62052;SDS011;48300;52.902;6.534;2023-12-20T07:56:38;21.30;;;3.35;;
62052;SDS011;48300;52.902;6.534;2023-12-20T07:59:05;26.10;;;2.92;;
62052;SDS011;48300;52.902;6.534;2023-12-20T08:01:31;18.48;;;3.58;;
62052;SDS011;48300;52.902;6.534;2023-12-20T08:03:57;18.73;;;2.85;;
62052;SDS011;48300;52.902;6.534;2023-12-20T08:06:23;31.15;;;5.97;;
62052;SDS011;48300;52.902;6.534;2023-12-20T08:08:49;24.25;;;4.57;;
62052;SDS011;48300;52.902;6.534;2023-12-20T08:11:15;20.90;;;3.42;;
62052;SDS011;48300;52.902;6.534;2023-12-20T08:13:42;18.77;;;2.95;;
62052;SDS011;48300;52.902;6.534;2023-12-20T08:16:08;25.05;;;3.22;;
62052;SDS011;48300;52.902;6.534;2023-12-20T08:18:34;31.98;;;3.70;;
62052;SDS011;48300;52.902;6.534;2023-12-20T08:21:00;25.08;;;3.65;;
62052;SDS011;48300;52.902;6.534;2023-12-20T08:23:27;26.95;;;2.92;;
62052;SDS011;48300;52.902;6.534;2023-12-20T08:25:53;19.48;;;2.45;;
62052;SDS011;48300;52.902;6.534;2023-12-20T08:28:19;20.45;;;2.58;;
62052;SDS011;48300;52.902;6.534;2023-12-20T08:30:45;17.02;;;2.30;;
62052;SDS011;48300;52.902;6.534;2023-12-20T08:33:11;23.27;;;3.00;;
62052;SDS011;48300;52.902;6.534;2023-12-20T08:35:40;19.63;;;3.33;;
62052;SDS011;48300;52.902;6.534;2023-12-20T08:38:06;30.40;;;3.58;;
62052;SDS011;48300;52.902;6.534;2023-12-20T08:40:32;17.92;;;3.33;;
62052;SDS011;48300;52.902;6.534;2023-12-20T08:42:58;23.42;;;3.15;;
62052;SDS011;48300;52.902;6.534;2023-12-20T08:45:24;18.67;;;2.30;;
62052;SDS011;48300;52.902;6.534;2023-12-20T08:47:50;28.85;;;3.30;;
62052;SDS011;48300;52.902;6.534;2023-12-20T08:50:16;19.08;;;3.33;;
62052;SDS011;48300;52.902;6.534;2023-12-20T08:52:43;20.58;;;3.20;;
62052;SDS011;48300;52.902;6.534;2023-12-20T08:55:09;23.05;;;3.10;;
62052;SDS011;48300;52.902;6.534;2023-12-20T08:57:35;22.88;;;3.08;;
62052;SDS011;48300;52.902;6.534;2023-12-20T09:00:02;24.90;;;3.28;;
62052;SDS011;48300;52.902;6.534;2023-12-20T09:02:28;25.25;;;3.15;;
62052;SDS011;48300;52.902;6.534;2023-12-20T09:04:54;19.90;;;2.80;;
62052;SDS011;48300;52.902;6.534;2023-12-20T09:07:26;24.95;;;3.65;;
62052;SDS011;48300;52.902;6.534;2023-12-20T09:09:55;20.08;;;3.22;;
62052;SDS011;48300;52.902;6.534;2023-12-20T09:12:21;20.70;;;2.42;;
62052;SDS011;48300;52.902;6.534;2023-12-20T09:14:48;22.40;;;2.70;;
62052;SDS011;48300;52.902;6.534;2023-12-20T09:17:15;16.85;;;3.13;;
62052;SDS011;48300;52.902;6.534;2023-12-20T09:19:41;18.70;;;2.97;;
62052;SDS011;48300;52.902;6.534;2023-12-20T09:22:08;20.63;;;3.03;;
62052;SDS011;48300;52.902;6.534;2023-12-20T09:24:34;17.58;;;3.25;;
62052;SDS011;48300;52.902;6.534;2023-12-20T09:27:00;19.60;;;2.45;;
62052;SDS011;48300;52.902;6.534;2023-12-20T09:29:26;21.95;;;2.67;;
62052;SDS011;48300;52.902;6.534;2023-12-20T09:31:52;22.48;;;2.60;;
62052;SDS011;48300;52.902;6.534;2023-12-20T09:34:18;16.35;;;2.17;;
62052;SDS011;48300;52.902;6.534;2023-12-20T09:36:44;15.73;;;2.38;;
62052;SDS011;48300;52.902;6.534;2023-12-20T09:39:18;17.48;;;2.60;;
62052;SDS011;48300;52.902;6.534;2023-12-20T09:41:45;13.27;;;2.13;;
62052;SDS011;48300;52.902;6.534;2023-12-20T09:44:13;10.07;;;1.77;;
62052;SDS011;48300;52.902;6.534;2023-12-20T09:46:41;9.23;;;0.95;;
62052;SDS011;48300;52.902;6.534;2023-12-20T09:51:34;5.68;;;0.70;;
62052;SDS011;48300;52.902;6.534;2023-12-20T09:54:03;8.25;;;0.70;;
62052;SDS011;48300;52.902;6.534;2023-12-20T09:56:29;7.55;;;0.90;;
62052;SDS011;48300;52.902;6.534;2023-12-20T09:58:56;7.50;;;0.73;;
62052;SDS011;48300;52.902;6.534;2023-12-20T10:01:22;7.05;;;0.68;;
62052;SDS011;48300;52.902;6.534;2023-12-20T10:03:50;16.00;;;1.17;;
62052;SDS011;48300;52.902;6.534;2023-12-20T10:06:16;4.57;;;0.68;;
62052;SDS011;48300;52.902;6.534;2023-12-20T10:08:42;10.10;;;0.80;;
62052;SDS011;48300;52.902;6.534;2023-12-20T10:11:08;8.82;;;1.08;;
62052;SDS011;48300;52.902;6.534;2023-12-20T10:13:38;7.88;;;0.60;;
62052;SDS011;48300;52.902;6.534;2023-12-20T10:16:05;3.15;;;0.50;;
62052;SDS011;48300;52.902;6.534;2023-12-20T10:18:32;10.60;;;0.90;;
62052;SDS011;48300;52.902;6.534;2023-12-20T10:20:58;8.15;;;0.93;;
62052;SDS011;48300;52.902;6.534;2023-12-20T10:23:24;3.50;;;0.52;;
62052;SDS011;48300;52.902;6.534;2023-12-20T10:25:57;3.80;;;0.50;;
62052;SDS011;48300;52.902;6.534;2023-12-20T10:28:23;9.70;;;0.77;;
62052;SDS011;48300;52.902;6.534;2023-12-20T10:30:52;7.35;;;0.88;;
62052;SDS011;48300;52.902;6.534;2023-12-20T10:33:23;9.82;;;0.90;;
62052;SDS011;48300;52.902;6.534;2023-12-20T10:35:49;9.55;;;0.98;;
62052;SDS011;48300;52.902;6.534;2023-12-20T10:38:16;7.78;;;0.77;;
62052;SDS011;48300;52.902;6.534;2023-12-20T10:40:42;10.73;;;0.70;;
62052;SDS011;48300;52.902;6.534;2023-12-20T10:43:08;10.32;;;0.82;;
62052;SDS011;48300;52.902;6.534;2023-12-20T10:45:34;6.60;;;0.77;;
62052;SDS011;48300;52.902;6.534;2023-12-20T10:48:01;10.40;;;0.77;;
62052;SDS011;48300;52.902;6.534;2023-12-20T10:50:28;11.13;;;1.20;;
62052;SDS011;48300;52.902;6.534;2023-12-20T10:52:55;9.25;;;0.95;;
62052;SDS011;48300;52.902;6.534;2023-12-20T10:55:22;6.90;;;0.93;;
62052;SDS011;48300;52.902;6.534;2023-12-20T10:57:49;5.85;;;0.73;;
62052;SDS011;48300;52.902;6.534;2023-12-20T11:00:16;5.53;;;0.63;;
62052;SDS011;48300;52.902;6.534;2023-12-20T11:02:43;6.68;;;1.30;;
62052;SDS011;48300;52.902;6.534;2023-12-20T11:08:10;10.48;;;0.70;;
62052;SDS011;48300;52.902;6.534;2023-12-20T11:10:56;7.47;;;1.27;;
62052;SDS011;48300;52.902;6.534;2023-12-20T11:13:26;7.28;;;1.10;;
62052;SDS011;48300;52.902;6.534;2023-12-20T11:15:53;5.32;;;0.70;;
62052;SDS011;48300;52.902;6.534;2023-12-20T11:18:19;10.45;;;0.95;;
62052;SDS011;48300;52.902;6.534;2023-12-20T11:20:45;8.63;;;0.95;;
62052;SDS011;48300;52.902;6.534;2023-12-20T11:23:11;12.10;;;1.40;;
62052;SDS011;48300;52.902;6.534;2023-12-20T11:25:49;9.60;;;1.20;;
62052;SDS011;48300;52.902;6.534;2023-12-20T11:28:20;11.82;;;1.42;;
62052;SDS011;48300;52.902;6.534;2023-12-20T11:30:47;11.43;;;0.80;;
62052;SDS011;48300;52.902;6.534;2023-12-20T11:33:16;5.63;;;1.00;;
62052;SDS011;48300;52.902;6.534;2023-12-20T11:35:46;11.07;;;1.55;;
62052;SDS011;48300;52.902;6.534;2023-12-20T11:38:13;7.70;;;0.90;;
62052;SDS011;48300;52.902;6.534;2023-12-20T11:40:40;9.43;;;1.23;;
62052;SDS011;48300;52.902;6.534;2023-12-20T11:43:06;9.00;;;1.35;;
62052;SDS011;48300;52.902;6.534;2023-12-20T11:45:33;5.95;;;0.93;;
62052;SDS011;48300;52.902;6.534;2023-12-20T11:48:02;6.70;;;0.80;;
62052;SDS011;48300;52.902;6.534;2023-12-20T11:50:28;15.45;;;1.15;;
62052;SDS011;48300;52.902;6.534;2023-12-20T11:52:55;11.05;;;1.25;;
62052;SDS011;48300;52.902;6.534;2023-12-20T11:55:22;14.52;;;1.30;;
62052;SDS011;48300;52.902;6.534;2023-12-20T11:57:49;8.30;;;0.90;;
62052;SDS011;48300;52.902;6.534;2023-12-20T12:00:15;12.65;;;0.95;;
62052;SDS011;48300;52.902;6.534;2023-12-20T12:02:42;12.95;;;0.90;;
62052;SDS011;48300;52.902;6.534;2023-12-20T12:05:08;14.45;;;1.42;;
62052;SDS011;48300;52.902;6.534;2023-12-20T12:07:34;6.45;;;1.13;;
62052;SDS011;48300;52.902;6.534;2023-12-20T12:10:00;11.90;;;0.95;;
62052;SDS011;48300;52.902;6.534;2023-12-20T12:12:28;8.73;;;1.00;;
62052;SDS011;48300;52.902;6.534;2023-12-20T12:14:55;12.32;;;2.03;;
62052;SDS011;48300;52.902;6.534;2023-12-20T12:17:22;11.88;;;1.30;;
62052;SDS011;48300;52.902;6.534;2023-12-20T12:19:48;13.57;;;2.08;;
62052;SDS011;48300;52.902;6.534;2023-12-20T12:22:15;10.88;;;1.52;;
62052;SDS011;48300;52.902;6.534;2023-12-20T12:24:45;9.10;;;1.02;;
62052;SDS011;48300;52.902;6.534;2023-12-20T12:27:12;8.40;;;1.70;;
62052;SDS011;48300;52.902;6.534;2023-12-20T12:29:38;11.90;;;0.90;;
62052;SDS011;48300;52.902;6.534;2023-12-20T12:32:07;14.05;;;1.52;;
62052;SDS011;48300;52.902;6.534;2023-12-20T12:34:37;12.75;;;1.05;;
62052;SDS011;48300;52.902;6.534;2023-12-20T12:37:03;12.32;;;1.17;;
62052;SDS011;48300;52.902;6.534;2023-12-20T12:39:29;12.63;;;1.10;;
62052;SDS011;48300;52.902;6.534;2023-12-20T12:41:56;17.52;;;1.40;;
62052;SDS011;48300;52.902;6.534;2023-12-20T12:44:22;9.88;;;0.88;;
62052;SDS011;48300;52.902;6.534;2023-12-20T12:46:51;9.88;;;1.25;;
62052;SDS011;48300;52.902;6.534;2023-12-20T12:49:21;22.08;;;7.18;;
62052;SDS011;48300;52.902;6.534;2023-12-20T12:51:47;10.57;;;1.42;;
62052;SDS011;48300;52.902;6.534;2023-12-20T12:54:14;12.25;;;1.20;;
62052;SDS011;48300;52.902;6.534;2023-12-20T12:56:41;11.73;;;0.98;;
62052;SDS011;48300;52.902;6.534;2023-12-20T12:59:08;8.85;;;1.20;;
62052;SDS011;48300;52.902;6.534;2023-12-20T13:01:34;9.52;;;1.35;;
62052;SDS011;48300;52.902;6.534;2023-12-20T13:04:00;7.80;;;1.02;;
62052;SDS011;48300;52.902;6.534;2023-12-20T13:06:28;12.63;;;1.17;;
62052;SDS011;48300;52.902;6.534;2023-12-20T13:08:54;7.50;;;0.90;;
62052;SDS011;48300;52.902;6.534;2023-12-20T13:11:20;8.10;;;0.93;;
62052;SDS011;48300;52.902;6.534;2023-12-20T13:13:46;8.93;;;1.10;;
62052;SDS011;48300;52.902;6.534;2023-12-20T13:16:12;9.63;;;0.90;;
62052;SDS011;48300;52.902;6.534;2023-12-20T13:18:39;9.40;;;0.85;;
62052;SDS011;48300;52.902;6.534;2023-12-20T13:21:07;6.57;;;0.77;;
62052;SDS011;48300;52.902;6.534;2023-12-20T13:23:34;13.95;;;1.23;;
62052;SDS011;48300;52.902;6.534;2023-12-20T13:26:00;10.48;;;1.60;;
62052;SDS011;48300;52.902;6.534;2023-12-20T13:28:26;9.98;;;0.73;;
62052;SDS011;48300;52.902;6.534;2023-12-20T13:30:51;13.85;;;0.90;;
62052;SDS011;48300;52.902;6.534;2023-12-20T13:33:17;7.18;;;0.77;;
62052;SDS011;48300;52.902;6.534;2023-12-20T13:35:43;8.80;;;1.27;;
62052;SDS011;48300;52.902;6.534;2023-12-20T13:38:09;11.48;;;0.90;;
62052;SDS011;48300;52.902;6.534;2023-12-20T13:40:36;12.25;;;1.20;;
62052;SDS011;48300;52.902;6.534;2023-12-20T13:43:02;8.68;;;1.20;;
62052;SDS011;48300;52.902;6.534;2023-12-20T13:45:28;14.52;;;1.27;;
62052;SDS011;48300;52.902;6.534;2023-12-20T13:47:54;9.02;;;1.08;;
62052;SDS011;48300;52.902;6.534;2023-12-20T13:50:20;11.38;;;1.77;;
62052;SDS011;48300;52.902;6.534;2023-12-20T13:52:47;4.90;;;0.93;;
62052;SDS011;48300;52.902;6.534;2023-12-20T13:55:13;9.50;;;1.35;;
62052;SDS011;48300;52.902;6.534;2023-12-20T13:57:39;8.85;;;1.33;;
62052;SDS011;48300;52.902;6.534;2023-12-20T14:00:06;10.52;;;1.35;;
62052;SDS011;48300;52.902;6.534;2023-12-20T14:02:39;9.02;;;0.90;;
62052;SDS011;48300;52.902;6.534;2023-12-20T14:05:05;8.93;;;1.27;;
62052;SDS011;48300;52.902;6.534;2023-12-20T14:07:31;13.45;;;1.30;;
62052;SDS011;48300;52.902;6.534;2023-12-20T14:09:57;11.52;;;1.20;;
62052;SDS011;48300;52.902;6.534;2023-12-20T14:12:24;8.25;;;0.93;;
62052;SDS011;48300;52.902;6.534;2023-12-20T14:14:50;9.52;;;1.42;;
62052;SDS011;48300;52.902;6.534;2023-12-20T14:17:17;6.60;;;0.65;;
62052;SDS011;48300;52.902;6.534;2023-12-20T14:19:43;8.75;;;0.90;;
62052;SDS011;48300;52.902;6.534;2023-12-20T14:22:09;6.32;;;1.48;;
62052;SDS011;48300;52.902;6.534;2023-12-20T14:24:35;4.95;;;0.77;;
62052;SDS011;48300;52.902;6.534;2023-12-20T14:27:01;11.57;;;1.13;;
62052;SDS011;48300;52.902;6.534;2023-12-20T14:29:27;8.27;;;0.95;;
62052;SDS011;48300;52.902;6.534;2023-12-20T14:31:53;6.35;;;0.85;;
62052;SDS011;48300;52.902;6.534;2023-12-20T14:34:19;7.80;;;1.05;;
62052;SDS011;48300;52.902;6.534;2023-12-20T14:36:45;6.35;;;0.88;;
62052;SDS011;48300;52.902;6.534;2023-12-20T14:39:11;3.03;;;0.70;;